Time;durP1;ratioP1;P1;durP2;ratioP2;P2;SDS_P1;SDS_P2;PMS_P1;PMS_P2;Temp;Humidity;BMP_temperature;BMP_pressure;BME280_temperature;BME280_humidity;BME280_pressure;Samples;Min_cycle;Max_cycle;Signal;HPM_P1;HPM_P2
2022/05/02 00:00:20;;;;;;;;;;;5.00;99.90;;;;;;5028056;28;19921;-75
2022/05/02 00:02:46;;;;;;;;;;;5.10;99.90;;;;;;5029798;28;20348;-74
2022/05/02 00:05:12;;;;;;;;;;;5.10;99.90;;;;;;5029479;28;19975;-74
2022/05/02 00:07:37;;;;;;;;;;;5.10;99.90;;;;;;5028766;28;20341;-74
2022/05/02 00:10:04;;;;;;;;;;;5.00;99.90;;;;;;5030580;28;19921;-74
2022/05/02 00:12:29;;;;;;;;;;;5.00;99.90;;;;;;5028233;28;19921;-74
2022/05/02 00:14:54;;;;;;;;;;;4.80;99.90;;;;;;5029960;28;19928;-75
2022/05/02 00:17:56;;;;;;;;;;;4.70;99.90;;;;;;5025554;28;19963;-75
2022/05/02 00:20:06;;;;;;;;;;;4.70;99.90;;;;;;5028571;28;19928;-74
2022/05/02 00:22:31;;;;;;;;;;;4.80;99.90;;;;;;5030943;28;19921;-75
2022/05/02 00:24:58;;;;;;;;;;;4.90;99.90;;;;;;5018924;28;19980;-74
2022/05/02 00:27:24;;;;;;;;;;;4.90;99.90;;;;;;5018633;28;19937;-75
2022/05/02 00:29:49;;;;;;;;;;;4.80;99.90;;;;;;5028155;28;19925;-73
2022/05/02 00:32:15;;;;;;;;;;;4.90;99.90;;;;;;5028220;28;19921;-74
2022/05/02 00:34:40;;;;;;;;;;;4.90;99.90;;;;;;5028021;28;20019;-74
2022/05/02 00:37:06;;;;;;;;;;;4.80;99.90;;;;;;5029300;28;19921;-74
2022/05/02 00:39:32;;;;;;;;;;;4.90;99.90;;;;;;5028697;28;19921;-74
2022/05/02 00:41:57;;;;;;;;;;;4.80;99.90;;;;;;5027279;28;19921;-74
2022/05/02 00:44:23;;;;;;;;;;;4.80;99.90;;;;;;5027796;28;19925;-74
2022/05/02 00:46:49;;;;;;;;;;;4.90;99.90;;;;;;5028104;28;19929;-74
2022/05/02 00:49:15;;;;;;;;;;;4.80;99.90;;;;;;5028001;28;20002;-74
2022/05/02 00:51:40;;;;;;;;;;;4.70;99.90;;;;;;5027942;28;20260;-74
2022/05/02 00:54:06;;;;;;;;;;;4.70;99.90;;;;;;5012506;28;19921;-74
2022/05/02 00:56:31;;;;;;;;;;;4.60;99.90;;;;;;5029169;28;19928;-74
2022/05/02 00:58:57;;;;;;;;;;;4.50;99.90;;;;;;5030963;28;20018;-74
2022/05/02 01:01:22;;;;;;;;;;;4.50;99.90;;;;;;5026188;28;19925;-75
2022/05/02 01:03:48;;;;;;;;;;;4.40;99.90;;;;;;5027732;28;19960;-74
2022/05/02 01:08:59;;;;;;;;;;;4.40;99.90;;;;;;5029535;28;19929;-75
2022/05/02 01:11:24;;;;;;;;;;;4.30;99.90;;;;;;5012305;28;19928;-76
2022/05/02 01:13:50;;;;;;;;;;;4.30;99.90;;;;;;5013755;28;19925;-74
2022/05/02 01:16:19;;;;;;;;;;;4.40;99.90;;;;;;5027803;28;19939;-76
2022/05/02 01:18:46;;;;;;;;;;;4.30;99.90;;;;;;5013282;28;20398;-75
2022/05/02 01:21:16;;;;;;;;;;;4.40;99.90;;;;;;5027925;28;19928;-74
2022/05/02 01:23:43;;;;;;;;;;;4.50;99.90;;;;;;5024245;28;20032;-74
2022/05/02 01:26:08;;;;;;;;;;;4.60;99.90;;;;;;5026071;28;19921;-75
2022/05/02 01:28:41;;;;;;;;;;;4.70;99.90;;;;;;5029173;28;20379;-76
2022/05/02 01:31:06;;;;;;;;;;;4.70;99.90;;;;;;5041039;28;19972;-75
2022/05/02 01:33:33;;;;;;;;;;;4.70;99.90;;;;;;5019680;28;19975;-75
2022/05/02 01:35:58;;;;;;;;;;;4.70;99.90;;;;;;5028938;28;19925;-76
2022/05/02 01:38:24;;;;;;;;;;;4.60;99.90;;;;;;5027748;28;19990;-75
2022/05/02 01:40:50;;;;;;;;;;;4.60;99.90;;;;;;5026204;28;19972;-75
2022/05/02 01:43:15;;;;;;;;;;;4.40;99.90;;;;;;5010102;28;19975;-75
2022/05/02 01:45:41;;;;;;;;;;;4.30;99.90;;;;;;5028044;28;20323;-75
2022/05/02 01:48:07;;;;;;;;;;;4.30;99.90;;;;;;5028070;28;19928;-73
2022/05/02 01:50:32;;;;;;;;;;;4.20;99.90;;;;;;5027817;28;19921;-74
2022/05/02 01:52:58;;;;;;;;;;;4.20;99.90;;;;;;5027635;28;19925;-74
2022/05/02 01:55:23;;;;;;;;;;;4.10;99.90;;;;;;5010325;28;20402;-75
2022/05/02 01:57:49;;;;;;;;;;;4.10;99.90;;;;;;5026998;28;20040;-75
2022/05/02 02:00:15;;;;;;;;;;;4.10;99.90;;;;;;5028314;28;20027;-74
2022/05/02 02:02:40;;;;;;;;;;;4.10;99.90;;;;;;5008767;28;19921;-74
2022/05/02 02:07:50;;;;;;;;;;;4.00;99.90;;;;;;5028116;28;19924;-74
2022/05/02 02:10:16;;;;;;;;;;;4.00;99.90;;;;;;5009548;28;20055;-74
2022/05/02 02:12:41;;;;;;;;;;;3.90;99.90;;;;;;5024861;28;19967;-73
2022/05/02 02:15:07;;;;;;;;;;;3.90;99.90;;;;;;5027006;28;19925;-73
2022/05/02 02:17:32;;;;;;;;;;;3.90;99.90;;;;;;5011480;28;19921;-73
2022/05/02 02:19:58;;;;;;;;;;;3.80;99.90;;;;;;5028032;28;19925;-74
2022/05/02 02:22:24;;;;;;;;;;;3.80;99.90;;;;;;5028615;28;20391;-74
2022/05/02 02:24:50;;;;;;;;;;;3.70;99.90;;;;;;5025079;28;19921;-74
2022/05/02 02:27:15;;;;;;;;;;;3.80;99.90;;;;;;5027245;28;19924;-74
2022/05/02 02:29:41;;;;;;;;;;;3.80;99.90;;;;;;5007102;28;19925;-74
2022/05/02 02:32:07;;;;;;;;;;;3.80;99.90;;;;;;5027424;28;20302;-74
2022/05/02 02:34:32;;;;;;;;;;;3.80;99.90;;;;;;5028011;28;19928;-73
2022/05/02 02:36:58;;;;;;;;;;;3.70;99.90;;;;;;5029037;28;20309;-74
2022/05/02 02:39:23;;;;;;;;;;;3.70;99.90;;;;;;5027092;28;20430;-75
2022/05/02 02:41:49;;;;;;;;;;;3.70;99.90;;;;;;5027581;28;20004;-75
2022/05/02 02:44:14;;;;;;;;;;;3.90;99.90;;;;;;5031202;28;20000;-74
2022/05/02 02:46:40;;;;;;;;;;;4.00;99.90;;;;;;5030205;28;19921;-75
2022/05/02 02:49:05;;;;;;;;;;;4.00;99.90;;;;;;5014416;28;19921;-75
2022/05/02 02:51:31;;;;;;;;;;;3.90;99.90;;;;;;5031665;28;19921;-75
2022/05/02 02:53:56;;;;;;;;;;;3.80;99.90;;;;;;5030300;28;21011;-74
2022/05/02 02:56:22;;;;;;;;;;;3.80;99.90;;;;;;5009953;28;20410;-75
2022/05/02 02:58:47;;;;;;;;;;;3.80;99.90;;;;;;5032821;28;19921;-74
2022/05/02 03:01:13;;;;;;;;;;;3.70;99.90;;;;;;5030927;28;20021;-74
2022/05/02 03:03:38;;;;;;;;;;;3.60;99.90;;;;;;5014418;28;21191;-74
2022/05/02 03:06:05;;;;;;;;;;;3.60;99.90;;;;;;5022469;28;20307;-74
2022/05/02 03:08:40;;;;;;;;;;;3.60;99.90;;;;;;5032923;28;20378;-75
2022/05/02 03:11:06;;;;;;;;;;;3.50;99.90;;;;;;5015470;28;20308;-74
2022/05/02 03:13:31;;;;;;;;;;;3.50;99.90;;;;;;5008448;28;20333;-74
2022/05/02 03:15:57;;;;;;;;;;;3.50;99.90;;;;;;5030716;28;19925;-74
2022/05/02 03:18:23;;;;;;;;;;;3.60;99.90;;;;;;5030094;28;19932;-74
2022/05/02 03:20:48;;;;;;;;;;;3.70;99.90;;;;;;5029301;28;19928;-74
2022/05/02 03:23:14;;;;;;;;;;;3.80;99.90;;;;;;5025934;28;19932;-74
2022/05/02 03:25:39;;;;;;;;;;;3.80;99.90;;;;;;5018810;28;19925;-74
2022/05/02 03:28:05;;;;;;;;;;;3.90;99.90;;;;;;5020963;28;19928;-74
2022/05/02 03:30:30;;;;;;;;;;;3.90;99.90;;;;;;5027920;28;19928;-74
2022/05/02 03:32:56;;;;;;;;;;;3.80;99.90;;;;;;5019439;28;19936;-74
2022/05/02 03:35:21;;;;;;;;;;;3.60;99.90;;;;;;5019432;28;19924;-74
2022/05/02 03:37:47;;;;;;;;;;;3.60;99.90;;;;;;5031825;28;19968;-74
2022/05/02 03:40:12;;;;;;;;;;;3.60;99.90;;;;;;5028676;28;19921;-74
2022/05/02 03:42:38;;;;;;;;;;;3.60;99.90;;;;;;5029789;28;20326;-73
2022/05/02 03:45:04;;;;;;;;;;;3.50;99.90;;;;;;5028782;28;20012;-74
2022/05/02 03:47:30;;;;;;;;;;;3.50;99.90;;;;;;5029981;28;19960;-74
2022/05/02 03:49:55;;;;;;;;;;;3.30;99.90;;;;;;5031587;28;19936;-75
2022/05/02 03:52:21;;;;;;;;;;;3.40;99.90;;;;;;5029547;28;19968;-75
2022/05/02 03:54:46;;;;;;;;;;;3.30;99.90;;;;;;5028315;28;19921;-75
2022/05/02 03:57:12;;;;;;;;;;;3.20;99.90;;;;;;5030694;28;20274;-74
2022/05/02 03:59:37;;;;;;;;;;;3.30;99.90;;;;;;5029877;28;19925;-75
2022/05/02 04:02:03;;;;;;;;;;;3.20;99.90;;;;;;5030758;28;20326;-75
2022/05/02 04:04:28;;;;;;;;;;;3.20;99.90;;;;;;5030568;28;19924;-75
2022/05/02 04:06:54;;;;;;;;;;;3.30;99.90;;;;;;5028917;28;19925;-73
2022/05/02 04:09:20;;;;;;;;;;;3.40;99.90;;;;;;5029404;28;19921;-74
2022/05/02 04:11:45;;;;;;;;;;;3.40;99.90;;;;;;5013700;28;19947;-74
2022/05/02 04:14:10;;;;;;;;;;;3.30;99.90;;;;;;5031637;28;19928;-75
2022/05/02 04:16:36;;;;;;;;;;;3.30;99.90;;;;;;5029568;28;19927;-73
2022/05/02 04:19:02;;;;;;;;;;;3.30;99.90;;;;;;5028447;28;19928;-75
2022/05/02 04:21:27;;;;;;;;;;;3.30;99.90;;;;;;5011049;28;19932;-74
2022/05/02 04:23:53;;;;;;;;;;;3.30;99.90;;;;;;5030187;28;19921;-74
2022/05/02 04:26:18;;;;;;;;;;;3.30;99.90;;;;;;5012234;28;20291;-74
2022/05/02 04:28:44;;;;;;;;;;;3.50;99.90;;;;;;5029575;28;19956;-74
2022/05/02 04:31:10;;;;;;;;;;;3.80;99.90;;;;;;5028909;28;20371;-74
2022/05/02 04:33:35;;;;;;;;;;;4.10;99.90;;;;;;5030794;28;19982;-74
2022/05/02 04:36:01;;;;;;;;;;;4.00;99.90;;;;;;5026637;28;20355;-74
2022/05/02 04:38:28;;;;;;;;;;;4.40;99.90;;;;;;5030054;28;20382;-74
2022/05/02 04:40:55;;;;;;;;;;;4.70;99.90;;;;;;5026716;28;19921;-74
2022/05/02 04:43:21;;;;;;;;;;;5.10;99.90;;;;;;5029731;28;19921;-74
2022/05/02 04:45:46;;;;;;;;;;;5.60;99.90;;;;;;5028844;28;20279;-74
2022/05/02 04:48:12;;;;;;;;;;;6.40;99.90;;;;;;5028522;28;19928;-75
2022/05/02 04:50:37;;;;;;;;;;;6.80;99.90;;;;;;5030519;28;19927;-74
2022/05/02 04:53:03;;;;;;;;;;;7.20;99.90;;;;;;5027199;28;19921;-76
2022/05/02 04:55:28;;;;;;;;;;;7.00;99.90;;;;;;5028533;28;19967;-73
2022/05/02 04:57:54;;;;;;;;;;;6.90;99.90;;;;;;5029309;28;19928;-73
2022/05/02 05:00:19;;;;;;;;;;;6.30;99.90;;;;;;5030218;28;19921;-73
2022/05/02 05:02:45;;;;;;;;;;;5.80;99.90;;;;;;5030061;28;19921;-73
2022/05/02 05:05:10;;;;;;;;;;;5.40;99.90;;;;;;5012942;28;19932;-74
2022/05/02 05:07:36;;;;;;;;;;;5.30;99.90;;;;;;5028396;28;19921;-74
2022/05/02 05:10:02;;;;;;;;;;;5.20;99.90;;;;;;5027565;28;19929;-74
2022/05/02 05:12:30;;;;;;;;;;;5.20;99.90;;;;;;5012622;28;19932;-76
2022/05/02 05:17:43;;;;;;;;;;;5.20;99.90;;;;;;5027199;28;19921;-75
2022/05/02 05:20:11;;;;;;;;;;;5.20;99.90;;;;;;5029762;28;20196;-75
2022/05/02 05:22:49;;;;;;;;;;;5.30;99.90;;;;;;5025867;28;20336;-75
2022/05/02 05:25:33;;;;;;;;;;;5.40;99.90;;;;;;5026517;28;19928;-75
2022/05/02 05:27:59;;;;;;;;;;;5.50;99.90;;;;;;5011483;28;19932;-75
2022/05/02 05:30:26;;;;;;;;;;;5.60;99.90;;;;;;5026049;28;19928;-75
2022/05/02 05:33:01;;;;;;;;;;;5.90;99.90;;;;;;5027224;28;19991;-74
2022/05/02 05:35:40;;;;;;;;;;;6.20;99.90;;;;;;5009739;28;20140;-73
2022/05/02 05:38:29;;;;;;;;;;;6.20;99.90;;;;;;5027423;28;19967;-73
2022/05/02 05:40:59;;;;;;;;;;;6.20;99.90;;;;;;5015846;28;20323;-75
2022/05/02 05:43:34;;;;;;;;;;;6.20;99.90;;;;;;5025086;28;19921;-74
2022/05/02 05:46:14;;;;;;;;;;;6.30;99.90;;;;;;5015511;28;20014;-75
2022/05/02 05:48:58;;;;;;;;;;;6.40;99.90;;;;;;5028672;28;19925;-75
2022/05/02 05:51:31;;;;;;;;;;;6.40;99.90;;;;;;5027321;28;20302;-75
2022/05/02 05:54:14;;;;;;;;;;;6.50;99.90;;;;;;5027947;28;20039;-75
2022/05/02 05:56:46;;;;;;;;;;;6.60;99.90;;;;;;5022176;28;19925;-75
2022/05/02 05:59:21;;;;;;;;;;;6.70;99.90;;;;;;5023942;28;20282;-75
2022/05/02 06:01:56;;;;;;;;;;;6.90;99.90;;;;;;5025538;28;19964;-75
2022/05/02 06:04:25;;;;;;;;;;;7.10;99.90;;;;;;5009199;28;19943;-75
2022/05/02 06:06:50;;;;;;;;;;;7.20;99.90;;;;;;5027831;28;20333;-75
2022/05/02 06:09:17;;;;;;;;;;;7.10;99.90;;;;;;5027343;28;19925;-75
2022/05/02 06:11:45;;;;;;;;;;;7.20;99.90;;;;;;5026319;28;20390;-75
2022/05/02 06:14:12;;;;;;;;;;;7.30;99.90;;;;;;5027466;28;19975;-75
2022/05/02 06:19:24;;;;;;;;;;;7.50;99.90;;;;;;5030745;28;19925;-75
2022/05/02 06:21:50;;;;;;;;;;;7.50;99.90;;;;;;5027837;28;19921;-75
2022/05/02 06:24:16;;;;;;;;;;;7.60;99.90;;;;;;5032174;28;19921;-75
2022/05/02 06:26:43;;;;;;;;;;;7.90;99.90;;;;;;5029117;28;20386;-75
2022/05/02 06:29:09;;;;;;;;;;;7.80;99.90;;;;;;5028453;28;19932;-74
2022/05/02 06:31:44;;;;;;;;;;;8.00;99.90;;;;;;5024748;28;19921;-75
2022/05/02 06:34:11;;;;;;;;;;;8.00;99.90;;;;;;5025515;28;20083;-75
2022/05/02 06:36:47;;;;;;;;;;;8.00;99.90;;;;;;5026928;28;19968;-75
2022/05/02 06:39:16;;;;;;;;;;;8.20;99.90;;;;;;5024121;28;19978;-75
2022/05/02 06:41:59;;;;;;;;;;;8.20;99.90;;;;;;5025016;28;19925;-75
2022/05/02 06:44:45;;;;;;;;;;;8.40;99.90;;;;;;5029764;28;19921;-75
2022/05/02 06:47:26;;;;;;;;;;;8.50;99.90;;;;;;4986991;28;19929;-75
2022/05/02 06:49:55;;;;;;;;;;;8.50;99.90;;;;;;5032639;28;19927;-74
2022/05/02 06:52:24;;;;;;;;;;;9.10;99.90;;;;;;5027140;28;19928;-75
2022/05/02 06:55:02;;;;;;;;;;;9.10;99.90;;;;;;5029727;28;19943;-74
2022/05/02 06:57:47;;;;;;;;;;;9.20;99.90;;;;;;5030144;28;19929;-75
2022/05/02 07:00:15;;;;;;;;;;;9.90;99.90;;;;;;5015428;28;20389;-74
2022/05/02 07:03:04;;;;;;;;;;;11.30;99.90;;;;;;5030862;28;19927;-75
2022/05/02 07:05:37;;;;;;;;;;;11.50;99.90;;;;;;5027264;28;19929;-74
2022/05/02 07:08:05;;;;;;;;;;;12.50;99.90;;;;;;5013736;28;20383;-73
2022/05/02 07:10:34;;;;;;;;;;;12.40;99.90;;;;;;5021999;28;19921;-73
2022/05/02 07:13:15;;;;;;;;;;;13.10;99.90;;;;;;5029249;28;19975;-76
2022/05/02 07:15:45;;;;;;;;;;;13.40;99.90;;;;;;5030608;28;19921;-75
2022/05/02 07:18:31;;;;;;;;;;;13.40;99.90;;;;;;5030925;28;19986;-74
2022/05/02 07:21:21;;;;;;;;;;;12.90;99.90;;;;;;5027434;28;19921;-76
2022/05/02 07:24:07;;;;;;;;;;;13.70;99.90;;;;;;5032572;28;19921;-72
2022/05/02 07:26:34;;;;;;;;;;;12.30;99.90;;;;;;5024409;28;19975;-76
2022/05/02 07:29:00;;;;;;;;;;;11.30;99.90;;;;;;5028475;28;19944;-76
2022/05/02 07:31:27;;;;;;;;;;;11.40;99.90;;;;;;5030209;28;19946;-75
2022/05/02 07:33:53;;;;;;;;;;;11.20;99.90;;;;;;5028780;28;19932;-75
2022/05/02 07:36:20;;;;;;;;;;;11.50;99.90;;;;;;5031999;28;19921;-75
2022/05/02 07:38:47;;;;;;;;;;;11.40;99.90;;;;;;5032257;28;19920;-74
2022/05/02 07:41:23;;;;;;;;;;;11.50;99.90;;;;;;5013528;28;20458;-75
2022/05/02 07:43:59;;;;;;;;;;;11.60;99.90;;;;;;5025514;28;20000;-74
2022/05/02 07:46:29;;;;;;;;;;;11.50;99.90;;;;;;5029598;28;19921;-74
2022/05/02 07:48:55;;;;;;;;;;;11.20;99.90;;;;;;5031552;28;19921;-75
2022/05/02 07:51:21;;;;;;;;;;;11.40;99.90;;;;;;5030563;28;19924;-75
2022/05/02 07:53:49;;;;;;;;;;;11.40;99.90;;;;;;5030815;28;19928;-76
2022/05/02 07:56:15;;;;;;;;;;;11.60;99.90;;;;;;5029094;28;20035;-74
2022/05/02 07:58:41;;;;;;;;;;;11.50;99.90;;;;;;5025916;28;20450;-75
2022/05/02 08:01:07;;;;;;;;;;;11.80;99.90;;;;;;5022854;28;20023;-75
2022/05/02 08:03:32;;;;;;;;;;;11.70;99.90;;;;;;5021275;28;19913;-74
2022/05/02 08:06:02;;;;;;;;;;;11.90;99.90;;;;;;5023031;28;19951;-74
2022/05/02 08:08:34;;;;;;;;;;;12.10;99.90;;;;;;5008049;28;19967;-75
2022/05/02 08:11:09;;;;;;;;;;;12.10;99.90;;;;;;5021850;28;19980;-75
2022/05/02 08:13:37;;;;;;;;;;;12.10;99.90;;;;;;5022742;28;20323;-75
2022/05/02 08:16:05;;;;;;;;;;;12.40;99.90;;;;;;5021865;28;19921;-75
2022/05/02 08:18:49;;;;;;;;;;;12.30;99.90;;;;;;5026574;28;20011;-75
2022/05/02 08:21:18;;;;;;;;;;;12.40;99.90;;;;;;5023362;28;19975;-75
2022/05/02 08:27:16;;;;;;;;;;;12.30;99.90;;;;;;5028500;28;20719;-74
2022/05/02 08:29:51;;;;;;;;;;;12.20;99.90;;;;;;5025595;28;19921;-75
2022/05/02 08:32:32;;;;;;;;;;;12.40;99.90;;;;;;5028341;28;19921;-75
2022/05/02 08:35:03;;;;;;;;;;;12.60;99.90;;;;;;5030544;28;20454;-74
2022/05/02 08:37:32;;;;;;;;;;;12.60;99.90;;;;;;5012280;28;20271;-77
2022/05/02 08:40:10;;;;;;;;;;;12.50;99.90;;;;;;5028248;28;20000;-76
2022/05/02 08:42:44;;;;;;;;;;;12.60;99.90;;;;;;5028879;28;20395;-75
2022/05/02 08:45:20;;;;;;;;;;;12.70;99.90;;;;;;5029672;28;19929;-76
2022/05/02 08:48:06;;;;;;;;;;;12.70;99.90;;;;;;5030321;28;20036;-75
2022/05/02 08:50:32;;;;;;;;;;;13.00;99.90;;;;;;5028174;28;20298;-75
2022/05/02 08:53:16;;;;;;;;;;;12.90;99.90;;;;;;5023963;28;20008;-74
2022/05/02 08:55:48;;;;;;;;;;;13.00;99.90;;;;;;5028783;28;19921;-76
2022/05/02 08:58:29;;;;;;;;;;;13.20;99.90;;;;;;5029526;28;19921;-74
2022/05/02 09:01:03;;;;;;;;;;;12.90;99.90;;;;;;4993510;28;19969;-77
2022/05/02 09:03:28;;;;;;;;;;;13.40;99.90;;;;;;5022166;28;19929;-78
2022/05/02 09:06:12;;;;;;;;;;;13.60;99.90;;;;;;5029755;28;19921;-78
2022/05/02 09:08:52;;;;;;;;;;;13.70;99.90;;;;;;5030423;28;20370;-79
2022/05/02 09:11:32;;;;;;;;;;;13.00;99.90;;;;;;5031027;28;20285;-77
2022/05/02 09:14:16;;;;;;;;;;;13.00;99.90;;;;;;5010364;28;20394;-78
2022/05/02 09:16:44;;;;;;;;;;;13.30;99.90;;;;;;5030494;28;20275;-78
2022/05/02 09:19:28;;;;;;;;;;;13.50;99.90;;;;;;5029790;28;20323;-78
2022/05/02 09:22:04;;;;;;;;;;;13.60;99.90;;;;;;5027529;28;19921;-78
2022/05/02 09:24:48;;;;;;;;;;;13.60;99.90;;;;;;5027304;28;20282;-78
2022/05/02 09:27:33;;;;;;;;;;;13.40;99.90;;;;;;5030226;28;19921;-78
2022/05/02 09:29:59;;;;;;;;;;;13.90;99.90;;;;;;5027891;28;19932;-78
2022/05/02 09:32:43;;;;;;;;;;;13.90;99.90;;;;;;5028239;28;19924;-78
2022/05/02 09:35:11;;;;;;;;;;;14.00;99.90;;;;;;5027388;28;20361;-77
2022/05/02 09:37:41;;;;;;;;;;;13.70;99.90;;;;;;5027675;28;20015;-78
2022/05/02 09:40:12;;;;;;;;;;;14.20;99.90;;;;;;5028560;28;19928;-80
2022/05/02 09:42:45;;;;;;;;;;;14.30;99.90;;;;;;5027270;28;19929;-78
2022/05/02 09:51:25;;;;;;;;;;;14.10;99.90;;;;;;5026812;28;19921;-80
2022/05/02 09:54:15;;;;;;;;;;;14.50;99.90;;;;;;5023659;28;19921;-78
2022/05/02 09:56:47;;;;;;;;;;;14.60;99.90;;;;;;5028270;28;19931;-81
2022/05/02 09:59:15;;;;;;;;;;;14.90;99.90;;;;;;5029726;28;19921;-83
2022/05/02 10:01:48;;;;;;;;;;;14.70;99.90;;;;;;5028659;28;19925;-78
2022/05/02 10:04:29;;;;;;;;;;;14.70;99.90;;;;;;5029870;28;19928;-78
2022/05/02 10:06:55;;;;;;;;;;;14.80;99.90;;;;;;5030614;28;19921;-80
2022/05/02 10:09:29;;;;;;;;;;;14.70;99.90;;;;;;5027703;28;19921;-77
2022/05/02 10:12:15;;;;;;;;;;;14.00;99.90;;;;;;5029392;28;19921;-78
2022/05/02 10:14:47;;;;;;;;;;;14.60;99.90;;;;;;5018932;28;20367;-77
2022/05/02 10:17:16;;;;;;;;;;;14.90;99.90;;;;;;5030064;28;19928;-78
2022/05/02 10:19:42;;;;;;;;;;;15.00;99.90;;;;;;5026413;28;20348;-79
2022/05/02 10:22:08;;;;;;;;;;;14.90;99.90;;;;;;5029158;28;20016;-77
2022/05/02 10:24:39;;;;;;;;;;;14.80;99.90;;;;;;5028419;28;19968;-78
2022/05/02 10:27:05;;;;;;;;;;;14.80;99.90;;;;;;5027997;28;19921;-76
2022/05/02 10:29:49;;;;;;;;;;;14.50;99.90;;;;;;4999410;28;19980;-79
2022/05/02 10:32:33;;;;;;;;;;;14.60;99.90;;;;;;5026778;28;20011;-79
2022/05/02 10:34:59;;;;;;;;;;;14.80;99.90;;;;;;5022016;28;19967;-81
2022/05/02 10:37:31;;;;;;;;;;;14.90;99.90;;;;;;5029223;28;19921;-81
2022/05/02 10:40:08;;;;;;;;;;;15.10;99.90;;;;;;5028112;28;19921;-81
2022/05/02 10:42:37;;;;;;;;;;;15.20;99.90;;;;;;5029804;28;19921;-81
2022/05/02 10:45:07;;;;;;;;;;;15.40;99.90;;;;;;5027902;28;19921;-77
2022/05/02 10:47:40;;;;;;;;;;;15.60;99.90;;;;;;5013172;28;19928;-78
2022/05/02 10:50:19;;;;;;;;;;;15.60;99.90;;;;;;5029704;28;19953;-78
2022/05/02 10:52:47;;;;;;;;;;;15.10;99.90;;;;;;5027333;28;19969;-77
2022/05/02 10:55:19;;;;;;;;;;;15.40;99.90;;;;;;5027039;28;19921;-77
2022/05/02 10:57:54;;;;;;;;;;;14.90;99.90;;;;;;5028333;28;20028;-77
2022/05/02 11:00:20;;;;;;;;;;;15.20;99.90;;;;;;5029036;28;19932;-78
2022/05/02 11:03:04;;;;;;;;;;;15.20;99.90;;;;;;5030973;28;19975;-79
2022/05/02 11:05:43;;;;;;;;;;;15.10;99.90;;;;;;5020046;28;20286;-77
2022/05/02 11:08:11;;;;;;;;;;;15.10;99.90;;;;;;5033104;28;20015;-78
2022/05/02 11:10:46;;;;;;;;;;;15.10;99.90;;;;;;5030056;28;19975;-77
2022/05/02 11:13:11;;;;;;;;;;;15.20;99.90;;;;;;5022878;28;19924;-78
2022/05/02 11:15:55;;;;;;;;;;;15.50;99.90;;;;;;5033676;28;19921;-78
2022/05/02 11:21:17;;;;;;;;;;;15.60;99.90;;;;;;5014454;28;20013;-77
2022/05/02 11:23:45;;;;;;;;;;;15.80;99.90;;;;;;5024440;28;19925;-78
2022/05/02 11:26:21;;;;;;;;;;;15.70;99.90;;;;;;5030553;28;20370;-78
2022/05/02 11:28:54;;;;;;;;;;;16.20;99.90;;;;;;5030633;28;20295;-79
2022/05/02 11:31:19;;;;;;;;;;;16.00;99.90;;;;;;5019757;28;19921;-75
2022/05/02 11:34:04;;;;;;;;;;;15.90;99.90;;;;;;5025654;28;20279;-77
2022/05/02 11:36:32;;;;;;;;;;;15.90;99.90;;;;;;5028661;28;19921;-77
2022/05/02 11:39:05;;;;;;;;;;;15.90;99.90;;;;;;5026590;28;19928;-77
2022/05/02 11:41:31;;;;;;;;;;;15.60;99.90;;;;;;5030165;28;19943;-79
2022/05/02 11:44:13;;;;;;;;;;;15.60;99.90;;;;;;5009304;28;19920;-79
2022/05/02 11:46:54;;;;;;;;;;;15.50;99.90;;;;;;5025460;28;19921;-78
2022/05/02 11:49:33;;;;;;;;;;;15.90;99.90;;;;;;5027190;28;19921;-81
2022/05/02 11:52:00;;;;;;;;;;;15.60;99.90;;;;;;5031225;28;19924;-82
2022/05/02 11:54:35;;;;;;;;;;;15.90;99.90;;;;;;5031199;28;19943;-80
2022/05/02 11:57:04;;;;;;;;;;;16.20;99.90;;;;;;5031614;28;20088;-81
2022/05/02 11:59:34;;;;;;;;;;;15.60;99.90;;;;;;5034125;28;20358;-82
2022/05/02 12:02:03;;;;;;;;;;;15.20;99.90;;;;;;5029753;28;19921;-78
2022/05/02 12:04:30;;;;;;;;;;;15.50;99.90;;;;;;5031421;28;20008;-83
2022/05/02 12:07:01;;;;;;;;;;;15.50;99.90;;;;;;5022185;28;20047;-83
2022/05/02 12:09:28;;;;;;;;;;;15.70;99.90;;;;;;5016200;28;19924;-82
2022/05/02 12:11:55;;;;;;;;;;;15.90;99.90;;;;;;5025389;28;19921;-83
2022/05/02 12:14:21;;;;;;;;;;;16.30;99.90;;;;;;5028078;28;19964;-83
2022/05/02 12:17:06;;;;;;;;;;;16.30;99.90;;;;;;5032962;28;19921;-81
2022/05/02 12:19:32;;;;;;;;;;;16.00;99.90;;;;;;5047563;28;20387;-82
2022/05/02 12:22:00;;;;;;;;;;;15.90;99.90;;;;;;5034662;28;19925;-82
2022/05/02 12:24:27;;;;;;;;;;;15.80;99.90;;;;;;5026854;28;19947;-84
2022/05/02 12:26:54;;;;;;;;;;;15.10;99.90;;;;;;5025643;28;19925;-80
2022/05/02 12:29:20;;;;;;;;;;;15.10;99.90;;;;;;5027898;28;19932;-76
2022/05/02 12:31:55;;;;;;;;;;;15.50;99.90;;;;;;5029005;28;19921;-82
2022/05/02 12:34:20;;;;;;;;;;;15.80;99.90;;;;;;5012971;28;19968;-82
2022/05/02 12:36:47;;;;;;;;;;;16.10;99.90;;;;;;5027275;28;19928;-82
2022/05/02 12:39:15;;;;;;;;;;;16.20;99.90;;;;;;5029101;28;19920;-81
2022/05/02 12:41:43;;;;;;;;;;;16.40;99.90;;;;;;5030231;28;19921;-82
2022/05/02 12:44:11;;;;;;;;;;;16.70;99.90;;;;;;5034311;28;19987;-81
2022/05/02 12:46:41;;;;;;;;;;;16.20;99.90;;;;;;5031458;28;19921;-81
2022/05/02 12:49:10;;;;;;;;;;;16.60;99.90;;;;;;5034940;28;19972;-82
2022/05/02 12:51:37;;;;;;;;;;;16.60;99.90;;;;;;5031806;28;20346;-82
2022/05/02 12:54:13;;;;;;;;;;;16.70;99.90;;;;;;5031973;28;19951;-78
2022/05/02 13:02:38;;;;;;;;;;;16.80;99.90;;;;;;5030755;28;19921;-82
2022/05/02 13:05:08;;;;;;;;;;;16.80;99.90;;;;;;5033126;28;19924;-82
2022/05/02 13:07:44;;;;;;;;;;;16.50;99.90;;;;;;5031358;28;19921;-82
2022/05/02 13:10:19;;;;;;;;;;;16.60;99.90;;;;;;5029678;28;19925;-82
2022/05/02 13:12:53;;;;;;;;;;;16.30;99.90;;;;;;5028400;28;19921;-81
2022/05/02 13:15:20;;;;;;;;;;;16.50;99.90;;;;;;5030819;28;20362;-82
2022/05/02 13:17:49;;;;;;;;;;;16.50;99.90;;;;;;5029827;28;19928;-82
2022/05/02 13:20:15;;;;;;;;;;;16.30;99.90;;;;;;5024650;28;19921;-82
2022/05/02 13:22:56;;;;;;;;;;;16.60;99.90;;;;;;5021042;28;20503;-82
2022/05/02 13:25:42;;;;;;;;;;;16.90;99.90;;;;;;5024835;28;19921;-82
2022/05/02 13:28:07;;;;;;;;;;;17.10;99.90;;;;;;5016551;28;19921;-77
2022/05/02 13:30:33;;;;;;;;;;;17.00;99.90;;;;;;5018908;28;20393;-82
2022/05/02 13:33:07;;;;;;;;;;;16.90;99.90;;;;;;5028969;28;20373;-81
2022/05/02 13:35:34;;;;;;;;;;;16.90;99.90;;;;;;5029265;28;19921;-82
2022/05/02 13:38:10;;;;;;;;;;;16.70;99.90;;;;;;5027061;28;19967;-81
2022/05/02 13:40:54;;;;;;;;;;;16.90;99.90;;;;;;5030498;28;20375;-81
2022/05/02 13:43:27;;;;;;;;;;;17.20;99.90;;;;;;5023536;28;19922;-81
2022/05/02 13:45:59;;;;;;;;;;;16.70;99.90;;;;;;5033356;28;19928;-82
2022/05/02 13:48:37;;;;;;;;;;;17.10;99.90;;;;;;5011898;28;20008;-83
2022/05/02 13:51:06;;;;;;;;;;;16.80;99.90;;;;;;5025203;28;19986;-78
2022/05/02 13:53:36;;;;;;;;;;;16.60;99.90;;;;;;5027270;28;19975;-82
2022/05/02 13:56:06;;;;;;;;;;;16.40;99.90;;;;;;5009372;28;19921;-82
2022/05/02 13:58:38;;;;;;;;;;;16.00;99.90;;;;;;5028046;28;19921;-82
2022/05/02 14:01:27;;;;;;;;;;;15.80;99.90;;;;;;5023343;28;19929;-81
2022/05/02 14:09:47;;;;;;;;;;;16.50;99.90;;;;;;4985562;28;19933;-83
2022/05/02 14:12:21;;;;;;;;;;;16.30;99.90;;;;;;5026431;28;20003;-83
2022/05/02 14:15:06;;;;;;;;;;;16.40;99.90;;;;;;5028895;28;20340;-82
2022/05/02 14:17:42;;;;;;;;;;;16.20;99.90;;;;;;5023527;28;19920;-83
2022/05/02 14:20:22;;;;;;;;;;;16.40;99.90;;;;;;5029951;28;19944;-78
2022/05/02 14:22:51;;;;;;;;;;;16.50;99.90;;;;;;5027472;28;20016;-86
2022/05/02 14:25:27;;;;;;;;;;;16.60;99.90;;;;;;5027221;28;19925;-82
2022/05/02 14:27:55;;;;;;;;;;;16.60;99.90;;;;;;5027103;28;19925;-80
2022/05/02 14:30:24;;;;;;;;;;;16.60;99.90;;;;;;5028579;28;20012;-80
2022/05/02 14:32:49;;;;;;;;;;;16.60;99.90;;;;;;5019073;28;20364;-78
2022/05/02 14:35:25;;;;;;;;;;;16.90;99.90;;;;;;5024167;28;19929;-80
2022/05/02 14:37:52;;;;;;;;;;;16.80;99.90;;;;;;5010037;28;20363;-80
2022/05/02 14:40:18;;;;;;;;;;;16.40;99.90;;;;;;5032608;28;19992;-81
2022/05/02 14:42:44;;;;;;;;;;;16.50;99.90;;;;;;5014646;28;19929;-80
2022/05/02 14:45:12;;;;;;;;;;;16.40;99.90;;;;;;5033071;28;20175;-79
2022/05/02 14:47:49;;;;;;;;;;;16.50;99.90;;;;;;5016849;28;19925;-81
2022/05/02 14:50:18;;;;;;;;;;;16.20;99.90;;;;;;5014946;28;20035;-79
2022/05/02 14:52:45;;;;;;;;;;;16.00;99.90;;;;;;5028300;28;20407;-80
2022/05/02 14:55:11;;;;;;;;;;;16.10;99.90;;;;;;5010954;28;19920;-80
2022/05/02 14:57:40;;;;;;;;;;;16.00;99.90;;;;;;5018100;28;20013;-80
2022/05/02 15:00:11;;;;;;;;;;;15.80;99.90;;;;;;5027885;28;19925;-80
2022/05/02 15:02:37;;;;;;;;;;;15.60;99.90;;;;;;5032662;28;19921;-82
2022/05/02 15:05:06;;;;;;;;;;;15.80;99.90;;;;;;5034176;28;19921;-80
2022/05/02 15:07:38;;;;;;;;;;;15.80;99.90;;;;;;5032635;28;19925;-80
2022/05/02 15:10:22;;;;;;;;;;;15.40;99.90;;;;;;5036709;28;19944;-79
2022/05/02 15:13:01;;;;;;;;;;;15.60;99.90;;;;;;5033215;28;19933;-82
2022/05/02 15:15:46;;;;;;;;;;;15.60;99.90;;;;;;5032277;28;19921;-81